Gallatin, Tennessee
Current Conditions -  °F | °C
As of 8:53 AM on Wednesday 22 Oct 2014 (Local Time) from KBNA Reporting Station
Clear Clear  
Wind Chill: 50°   Ceiling: Unl
Heat Index: 50°   Visibility: 10mi
Dew Point: 43°   Wind: 12mph
Humidity: 77%   Direction: 50°NE
Pressure: 30.26"   Gusts: NA
Location:  36.39°N, 86.45°W
Report Text: KBNA 221353Z 05010KT 10SM CLR 10/06 A3026 RMK AO2 SLP246 T01000061
Loading
Personal Weather Stations






























Interactive Weather Map
Tropical Storm Tracking
New forecast layout! Learn more

10-Day Weather Forecast

Advertisements
Track Severe Weather on mobile